createdAt,value
2022-11-02T00:00:36.228Z,26.13
2022-11-02T00:02:08.012Z,23.92
2022-11-02T00:03:39.748Z,25.80
2022-11-02T00:05:13.831Z,26.42
2022-11-02T00:06:45.539Z,26.38
2022-11-02T00:08:17.276Z,27.98
2022-11-02T00:09:49.025Z,27.70
2022-11-02T00:11:20.744Z,25.65
2022-11-02T00:12:53.090Z,37.75
2022-11-02T00:14:24.983Z,27.52
2022-11-02T00:15:57.219Z,27.55
2022-11-02T00:17:29.696Z,30.90
2022-11-02T00:19:04.050Z,39.08
2022-11-02T00:20:39.494Z,41.47
2022-11-02T00:22:11.250Z,35.55
2022-11-02T00:23:43.318Z,30.55
2022-11-02T00:25:19.431Z,32.70
2022-11-02T00:26:51.197Z,48.85
2022-11-02T00:28:23.495Z,46.83
2022-11-02T00:29:55.373Z,36.22
2022-11-02T00:31:27.120Z,36.28
2022-11-02T00:32:58.851Z,32.03
2022-11-02T00:34:30.563Z,66.00
2022-11-02T00:36:02.352Z,40.30
2022-11-02T00:40:58.558Z,196.85
2022-11-02T00:42:30.304Z,85.20
2022-11-02T00:44:02.660Z,52.00
2022-11-02T00:45:34.515Z,46.63
2022-11-02T00:47:06.367Z,63.78
2022-11-02T00:48:38.122Z,64.63
2022-11-02T00:50:10.331Z,47.75
2022-11-02T00:51:44.404Z,47.50
2022-11-02T00:53:18.247Z,73.53
2022-11-02T00:54:56.308Z,54.95
2022-11-02T00:56:28.395Z,52.30
2022-11-02T00:58:00.292Z,42.70
2022-11-02T00:59:32.454Z,75.88
2022-11-02T01:01:08.511Z,68.88
2022-11-02T01:02:41.836Z,67.28
2022-11-02T01:04:14.654Z,72.65
2022-11-02T01:05:46.403Z,48.38
2022-11-02T01:07:18.156Z,47.58
2022-11-02T01:08:49.954Z,76.97
2022-11-02T01:10:23.043Z,60.38
2022-11-02T01:11:54.795Z,59.42
2022-11-02T01:13:26.519Z,68.82
2022-11-02T01:14:58.288Z,42.25
2022-11-02T01:16:30.059Z,48.50
2022-11-02T01:18:02.218Z,42.97
2022-11-02T01:19:34.179Z,37.65
2022-11-02T01:21:06.324Z,31.73
2022-11-02T01:22:38.256Z,34.72
2022-11-02T01:24:10.448Z,39.35
2022-11-02T01:25:45.879Z,32.40
2022-11-02T01:27:17.607Z,55.20
2022-11-02T01:28:49.690Z,52.28
2022-11-02T01:30:21.417Z,40.30
2022-11-02T01:31:53.800Z,48.80
2022-11-02T01:33:27.010Z,40.67
2022-11-02T01:34:59.500Z,51.75
2022-11-02T01:36:31.220Z,40.67
2022-11-02T01:38:03.171Z,39.20
2022-11-02T01:39:35.164Z,30.95
2022-11-02T01:41:07.556Z,48.22
2022-11-02T01:42:39.312Z,46.53
2022-11-02T01:44:34.622Z,31.10
2022-11-02T01:46:12.088Z,85.35
2022-11-02T01:47:48.288Z,47.53
2022-11-02T01:49:21.428Z,34.45
2022-11-02T01:50:53.666Z,48.60
2022-11-02T01:52:31.193Z,29.48
2022-11-02T01:54:08.763Z,46.88
2022-11-02T01:55:40.685Z,38.10
2022-11-02T01:57:17.988Z,44.58
2022-11-02T01:58:56.838Z,34.03
2022-11-02T02:00:28.646Z,37.00
2022-11-02T02:02:00.456Z,36.25
2022-11-02T02:03:35.359Z,38.03
2022-11-02T02:05:11.166Z,31.05
2022-11-02T02:06:44.192Z,24.13
2022-11-02T02:08:19.490Z,32.72
2022-11-02T02:09:52.901Z,27.10
2022-11-02T02:11:27.161Z,29.38
2022-11-02T02:12:58.973Z,51.10
2022-11-02T02:14:30.861Z,37.42
2022-11-02T02:16:18.593Z,29.95
2022-11-02T02:17:53.559Z,34.42
2022-11-02T02:19:56.557Z,37.08
2022-11-02T02:22:05.888Z,59.53
2022-11-02T02:24:20.912Z,73.25
2022-11-02T02:26:27.385Z,104.28
2022-11-02T02:28:12.182Z,68.65
2022-11-02T02:29:51.520Z,91.57
2022-11-02T02:31:31.369Z,60.00
2022-11-02T02:33:12.020Z,47.90
2022-11-02T02:34:53.407Z,58.08
2022-11-02T02:36:31.127Z,71.95
2022-11-02T02:38:14.492Z,89.47
2022-11-02T02:40:24.894Z,70.07
2022-11-02T02:42:18.872Z,143.03
2022-11-02T02:43:54.764Z,119.15
2022-11-02T02:45:33.219Z,73.45
2022-11-02T02:47:21.594Z,80.43
2022-11-02T02:48:57.104Z,92.72
2022-11-02T02:50:39.264Z,74.57
2022-11-02T02:52:12.755Z,106.07
2022-11-02T02:53:50.556Z,75.10
2022-11-02T02:55:31.306Z,83.22
2022-11-02T02:57:08.889Z,63.30
2022-11-02T02:58:47.413Z,48.45
2022-11-02T03:00:19.348Z,99.00
2022-11-02T03:01:54.647Z,56.20
2022-11-02T03:03:28.920Z,95.00
2022-11-02T03:05:00.668Z,49.00
2022-11-02T03:06:36.816Z,52.25
2022-11-02T03:08:16.689Z,52.20
2022-11-02T03:10:17.920Z,56.60
2022-11-02T03:12:40.822Z,133.57
2022-11-02T03:14:47.739Z,175.82
2022-11-02T03:16:38.297Z,153.82
2022-11-02T03:18:31.120Z,144.55
2022-11-02T03:20:10.913Z,138.23
2022-11-02T03:21:45.011Z,83.20
2022-11-02T03:23:25.029Z,65.93
2022-11-02T03:25:19.245Z,70.80
2022-11-02T03:27:11.698Z,97.40
2022-11-02T03:29:03.113Z,94.65
2022-11-02T03:32:22.666Z,229.68
2022-11-02T03:34:04.474Z,124.63
2022-11-02T03:35:47.103Z,88.20
2022-11-02T03:37:33.838Z,83.28
2022-11-02T03:39:11.664Z,79.32
2022-11-02T03:40:50.551Z,106.20
2022-11-02T03:42:27.280Z,116.07
2022-11-02T03:44:07.340Z,73.03
2022-11-02T03:45:43.147Z,71.35
2022-11-02T03:47:18.854Z,57.22
2022-11-02T03:48:52.856Z,63.28
2022-11-02T03:50:24.830Z,69.53
2022-11-02T03:52:03.318Z,86.22
2022-11-02T03:53:44.400Z,53.90
2022-11-02T03:55:24.360Z,71.45
2022-11-02T03:57:01.982Z,89.15
2022-11-02T03:58:34.049Z,57.53
2022-11-02T04:00:11.855Z,52.30
2022-11-02T04:01:52.038Z,91.07
2022-11-02T04:03:26.533Z,72.85
2022-11-02T04:04:59.271Z,60.05
2022-11-02T04:06:32.405Z,83.78
2022-11-02T04:08:24.468Z,39.42
2022-11-02T04:10:00.125Z,122.95
2022-11-02T04:11:51.161Z,61.60
2022-11-02T04:13:42.400Z,84.95
2022-11-02T04:15:14.352Z,109.80
2022-11-02T04:16:46.141Z,63.80
2022-11-02T04:18:45.865Z,85.90
2022-11-02T04:20:17.598Z,99.30
2022-11-02T04:22:08.938Z,73.57
2022-11-02T04:24:02.153Z,92.65
2022-11-02T04:25:33.937Z,92.30
2022-11-02T04:27:21.290Z,73.65
2022-11-02T04:28:54.554Z,47.05
2022-11-02T04:30:26.365Z,66.00
2022-11-02T04:31:59.885Z,42.42
2022-11-02T04:33:34.795Z,48.38
2022-11-02T04:35:18.804Z,65.80
2022-11-02T04:36:51.375Z,41.03
2022-11-02T04:38:41.347Z,44.72
2022-11-02T04:40:24.216Z,93.63
2022-11-02T04:41:56.372Z,60.33
2022-11-02T04:43:39.342Z,44.83
2022-11-02T04:45:11.264Z,43.72
2022-11-02T04:46:44.471Z,34.80
2022-11-02T04:48:17.620Z,33.47
2022-11-02T04:49:49.364Z,39.92
2022-11-02T04:51:25.110Z,35.85
2022-11-02T04:52:58.656Z,36.50
2022-11-02T04:54:30.965Z,35.10
2022-11-02T04:56:07.021Z,64.40
2022-11-02T04:57:38.855Z,41.10
2022-11-02T04:59:11.202Z,53.25
2022-11-02T05:00:43.360Z,40.03
2022-11-02T05:02:16.862Z,52.80
2022-11-02T05:03:51.385Z,57.80
2022-11-02T05:05:23.953Z,48.72
2022-11-02T05:07:01.492Z,47.40
2022-11-02T05:08:36.163Z,77.15
2022-11-02T05:10:09.025Z,41.70
2022-11-02T05:11:41.411Z,45.88
2022-11-02T05:13:13.132Z,47.40
2022-11-02T05:14:44.868Z,46.92
2022-11-02T05:16:17.345Z,50.67
2022-11-02T05:17:50.236Z,76.07
2022-11-02T05:19:23.046Z,79.70
2022-11-02T05:20:57.037Z,52.63
2022-11-02T05:22:31.264Z,46.28
2022-11-02T05:24:03.110Z,51.65
2022-11-02T05:25:35.173Z,66.18
2022-11-02T05:27:07.048Z,87.13
2022-11-02T05:28:41.127Z,71.78
2022-11-02T05:30:13.558Z,93.22
2022-11-02T05:31:46.250Z,79.22
2022-11-02T05:33:19.530Z,88.65
2022-11-02T05:34:51.432Z,116.63
2022-11-02T05:36:23.244Z,117.25
2022-11-02T05:37:56.622Z,101.40
2022-11-02T05:39:31.191Z,102.90
2022-11-02T05:41:03.766Z,103.32
2022-11-02T05:42:39.398Z,196.77
2022-11-02T05:44:11.225Z,151.68
2022-11-02T05:45:44.440Z,130.32
2022-11-02T05:47:16.213Z,152.90
2022-11-02T05:48:47.990Z,157.63
2022-11-02T05:50:20.248Z,158.95
2022-11-02T05:51:52.257Z,163.20
2022-11-02T05:53:24.765Z,187.25
2022-11-02T05:54:56.505Z,127.60
2022-11-02T05:56:28.252Z,106.97
2022-11-02T05:57:59.975Z,118.97
2022-11-02T05:59:31.709Z,107.82
2022-11-02T06:01:05.748Z,108.47
2022-11-02T06:02:37.488Z,106.00
2022-11-02T06:04:09.439Z,120.35
2022-11-02T06:05:41.341Z,100.82
2022-11-02T06:07:13.106Z,90.45
2022-11-02T06:08:44.833Z,129.30
2022-11-02T06:10:16.975Z,120.38
2022-11-02T06:11:48.712Z,156.43
2022-11-02T06:13:20.745Z,123.22
2022-11-02T06:14:52.472Z,161.63
2022-11-02T06:16:24.236Z,159.35
2022-11-02T06:17:56.372Z,143.65
2022-11-02T06:19:28.174Z,142.73
2022-11-02T06:21:00.374Z,163.85
2022-11-02T06:22:39.341Z,169.48
2022-11-02T06:24:11.062Z,207.07
2022-11-02T06:25:42.905Z,180.75
2022-11-02T06:27:14.637Z,145.40
2022-11-02T06:28:46.444Z,155.93
2022-11-02T06:30:19.131Z,129.65
2022-11-02T06:31:50.896Z,143.13
2022-11-02T06:33:22.754Z,164.65
2022-11-02T06:34:54.552Z,156.68
2022-11-02T06:36:26.292Z,167.85
2022-11-02T06:37:58.072Z,147.68
2022-11-02T06:39:29.836Z,149.13
2022-11-02T06:41:04.261Z,127.65
2022-11-02T06:42:44.905Z,110.93
2022-11-02T06:44:18.426Z,149.65
2022-11-02T06:45:50.451Z,106.53
2022-11-02T06:47:22.166Z,110.93
2022-11-02T06:48:53.887Z,102.88
2022-11-02T06:50:25.976Z,64.60
2022-11-02T06:51:57.766Z,88.15
2022-11-02T06:53:29.624Z,72.95
2022-11-02T06:55:01.341Z,86.10
2022-11-02T06:56:33.087Z,55.17
2022-11-02T06:58:04.939Z,44.25
2022-11-02T06:59:37.428Z,51.38
2022-11-02T07:01:09.446Z,64.65
2022-11-02T07:02:41.312Z,75.28
2022-11-02T07:04:13.599Z,47.58
2022-11-02T07:05:51.957Z,37.40
2022-11-02T07:07:24.185Z,46.97
2022-11-02T07:08:55.950Z,46.28
2022-11-02T07:10:28.669Z,53.65
2022-11-02T07:12:00.501Z,33.45
2022-11-02T07:13:32.235Z,41.08
2022-11-02T07:15:04.297Z,48.88
2022-11-02T07:16:36.107Z,32.50
2022-11-02T07:18:08.706Z,29.63
2022-11-02T07:19:40.461Z,38.67
2022-11-02T07:21:12.289Z,44.03
2022-11-02T07:22:55.398Z,37.33
2022-11-02T07:24:27.420Z,39.28
2022-11-02T07:26:01.837Z,44.88
2022-11-02T07:27:39.440Z,38.85
2022-11-02T07:29:11.171Z,50.03
2022-11-02T07:30:42.920Z,37.97
2022-11-02T07:32:15.150Z,26.27
2022-11-02T07:33:46.899Z,53.85
2022-11-02T07:35:18.700Z,28.27
2022-11-02T07:36:50.468Z,45.65
2022-11-02T07:38:22.189Z,21.73
2022-11-02T07:39:53.924Z,25.70
2022-11-02T07:41:25.667Z,27.75
2022-11-02T07:42:57.940Z,25.95
2022-11-02T07:44:44.818Z,31.35
2022-11-02T07:46:16.599Z,24.63
2022-11-02T07:47:49.060Z,24.98
2022-11-02T07:49:21.790Z,27.85
2022-11-02T07:50:53.632Z,28.33
2022-11-02T07:52:25.689Z,25.10
2022-11-02T07:53:57.988Z,28.20
2022-11-02T07:55:31.183Z,28.75
2022-11-02T07:57:03.708Z,22.67
2022-11-02T07:58:35.497Z,23.05
2022-11-02T08:00:07.748Z,24.02
2022-11-02T08:01:43.366Z,26.40
2022-11-02T08:03:15.271Z,19.25
2022-11-02T08:04:47.152Z,24.00
2022-11-02T08:06:18.887Z,24.45
2022-11-02T08:07:58.395Z,19.88
2022-11-02T08:09:30.135Z,24.40
2022-11-02T08:11:07.132Z,18.77
2022-11-02T08:12:38.890Z,24.13
2022-11-02T08:14:10.991Z,24.35
2022-11-02T08:15:42.755Z,21.33
2022-11-02T08:17:14.479Z,23.02
2022-11-02T08:18:46.202Z,21.25
2022-11-02T08:20:17.953Z,22.02
2022-11-02T08:21:49.774Z,20.20
2022-11-02T08:23:21.672Z,20.75
2022-11-02T08:24:53.416Z,18.65
2022-11-02T08:26:25.132Z,27.60
2022-11-02T08:27:59.230Z,18.80
2022-11-02T08:29:30.995Z,20.92
2022-11-02T08:31:02.912Z,19.00
2022-11-02T08:32:34.699Z,17.42
2022-11-02T08:34:06.508Z,21.60
2022-11-02T08:35:38.283Z,23.48
2022-11-02T08:37:10.100Z,22.25
2022-11-02T08:38:42.462Z,20.00
2022-11-02T08:40:14.284Z,16.25
2022-11-02T08:41:46.049Z,16.75
2022-11-02T08:43:17.761Z,22.85
2022-11-02T08:44:49.571Z,16.90
2022-11-02T08:46:21.335Z,17.95
2022-11-02T08:47:53.377Z,28.48
2022-11-02T08:49:25.204Z,18.48
2022-11-02T08:50:57.117Z,17.35
2022-11-02T08:52:28.868Z,19.45
2022-11-02T08:54:00.679Z,23.45
2022-11-02T08:55:32.420Z,15.02
2022-11-02T08:57:04.149Z,22.13
2022-11-02T08:58:35.896Z,20.50
2022-11-02T09:00:08.499Z,17.25
2022-11-02T09:01:40.447Z,17.90
2022-11-02T09:03:14.003Z,16.73
2022-11-02T09:04:45.744Z,17.23
2022-11-02T09:06:17.555Z,20.88
2022-11-02T09:07:49.282Z,17.17
2022-11-02T09:09:21.013Z,17.20
2022-11-02T09:10:53.347Z,21.27
2022-11-02T09:12:25.305Z,14.32
2022-11-02T09:13:57.405Z,14.93
2022-11-02T09:15:29.984Z,16.83
2022-11-02T09:17:01.719Z,19.23
2022-11-02T09:18:33.496Z,16.58
2022-11-02T09:20:05.725Z,16.45
2022-11-02T09:21:37.575Z,18.20
2022-11-02T09:23:09.344Z,23.10
2022-11-02T09:24:44.260Z,19.25
2022-11-02T09:26:16.039Z,17.13
2022-11-02T09:27:55.545Z,16.17
2022-11-02T09:29:27.679Z,16.08
2022-11-02T09:30:59.764Z,20.90
2022-11-02T09:32:33.751Z,13.55
2022-11-02T09:34:05.490Z,18.38
2022-11-02T09:35:40.004Z,18.15
2022-11-02T09:37:11.826Z,17.55
2022-11-02T09:38:43.570Z,20.10
2022-11-02T09:40:21.124Z,17.45
2022-11-02T09:42:07.117Z,17.85
2022-11-02T09:44:07.482Z,16.33
2022-11-02T09:45:55.528Z,23.38
2022-11-02T09:48:10.711Z,15.15
2022-11-02T09:49:25.213Z,21.85
2022-11-02T09:51:10.843Z,17.20
2022-11-02T09:52:45.528Z,29.50
2022-11-02T09:54:29.588Z,30.73
2022-11-02T09:56:04.669Z,14.55
2022-11-02T09:57:38.465Z,24.60
2022-11-02T09:59:20.028Z,19.75
2022-11-02T10:01:01.519Z,17.88
2022-11-02T10:02:39.348Z,16.55
2022-11-02T10:04:29.732Z,17.73
2022-11-02T10:06:15.688Z,37.58
2022-11-02T10:08:05.923Z,14.63
2022-11-02T10:09:47.823Z,16.67
2022-11-02T10:12:01.252Z,16.85
2022-11-02T10:13:41.115Z,21.58
2022-11-02T10:15:19.263Z,24.80
2022-11-02T10:17:18.759Z,26.55
2022-11-02T10:18:53.843Z,15.60
2022-11-02T10:20:37.955Z,20.23
2022-11-02T10:22:14.905Z,20.55
2022-11-02T10:23:54.524Z,17.58
2022-11-02T10:25:26.527Z,16.63
2022-11-02T10:27:04.309Z,17.20
2022-11-02T10:28:40.299Z,29.92
2022-11-02T10:30:15.880Z,24.40
2022-11-02T10:31:49.075Z,52.50
2022-11-02T10:33:27.352Z,35.80
2022-11-02T10:35:25.382Z,30.00
2022-11-02T10:37:20.860Z,46.83
2022-11-02T10:39:03.309Z,33.05
2022-11-02T10:40:44.728Z,20.42
2022-11-02T10:42:35.220Z,45.72
2022-11-02T10:44:55.250Z,24.85
2022-11-02T10:47:08.059Z,34.70
2022-11-02T10:48:54.418Z,72.57
2022-11-02T10:51:00.617Z,31.77
2022-11-02T10:52:41.819Z,20.85
2022-11-02T10:54:17.864Z,24.73
2022-11-02T10:56:22.935Z,29.30
2022-11-02T10:57:59.125Z,25.40
2022-11-02T10:59:30.883Z,22.00
2022-11-02T11:01:11.573Z,47.42
2022-11-02T11:02:43.534Z,20.13
2022-11-02T11:04:26.946Z,37.13
2022-11-02T11:06:12.633Z,33.40
2022-11-02T11:07:45.178Z,18.23
2022-11-02T11:09:25.986Z,24.40
2022-11-02T11:11:15.299Z,40.40
2022-11-02T11:12:47.116Z,26.30
2022-11-02T11:16:17.747Z,39.42
2022-11-02T11:19:50.586Z,25.35
2022-11-02T11:21:22.891Z,70.35
2022-11-02T11:23:10.393Z,37.78
2022-11-02T11:24:42.232Z,35.83
2022-11-02T11:26:28.196Z,38.13
2022-11-02T11:28:00.531Z,34.20
2022-11-02T11:29:38.498Z,36.97
2022-11-02T11:31:15.159Z,42.35
2022-11-02T11:32:48.045Z,39.72
2022-11-02T11:34:28.772Z,53.53
2022-11-02T11:36:01.001Z,65.63
2022-11-02T11:37:33.259Z,43.75
2022-11-02T11:39:08.284Z,51.72
2022-11-02T11:40:44.983Z,36.25
2022-11-02T11:42:22.391Z,72.60
2022-11-02T11:43:54.688Z,63.00
2022-11-02T11:45:28.206Z,36.25
2022-11-02T11:47:00.712Z,42.20
2022-11-02T11:48:40.041Z,47.80
2022-11-02T11:50:21.834Z,36.33
2022-11-02T11:52:02.371Z,41.72
2022-11-02T11:53:35.606Z,50.10
2022-11-02T11:55:27.840Z,43.00
2022-11-02T11:57:22.995Z,47.13
2022-11-02T11:58:54.861Z,52.25
2022-11-02T12:00:30.161Z,39.58
2022-11-02T12:02:03.775Z,34.17
2022-11-02T12:03:55.986Z,47.17
2022-11-02T12:05:27.913Z,66.18
2022-11-02T12:07:10.218Z,55.42
2022-11-02T12:09:08.050Z,48.33
2022-11-02T12:11:13.739Z,45.42
2022-11-02T12:13:19.884Z,48.88
2022-11-02T12:15:13.687Z,58.60
2022-11-02T12:16:53.029Z,35.92
2022-11-02T12:18:33.353Z,32.67
2022-11-02T12:20:37.741Z,66.78
2022-11-02T12:22:21.409Z,45.90
2022-11-02T12:24:17.660Z,39.38
2022-11-02T12:26:14.720Z,42.17
2022-11-02T12:28:13.450Z,46.88
2022-11-02T12:29:57.504Z,41.78
2022-11-02T12:31:40.281Z,72.93
2022-11-02T12:33:39.712Z,76.72
2022-11-02T12:35:40.053Z,81.00
2022-11-02T12:37:53.129Z,57.08
2022-11-02T12:39:44.607Z,76.85
2022-11-02T12:43:01.888Z,57.28
2022-11-02T12:44:36.549Z,57.28
2022-11-02T12:46:37.926Z,55.83
2022-11-02T12:48:19.980Z,67.68
2022-11-02T12:50:03.784Z,83.07
2022-11-02T12:51:59.088Z,70.63
2022-11-02T12:53:49.108Z,76.38
2022-11-02T12:55:26.565Z,84.55
2022-11-02T12:56:58.604Z,86.43
2022-11-02T12:58:34.775Z,66.55
2022-11-02T13:00:15.767Z,85.35
2022-11-02T13:01:52.857Z,59.97
2022-11-02T13:03:35.838Z,62.90
2022-11-02T13:05:20.596Z,60.78
2022-11-02T13:06:58.340Z,56.38
2022-11-02T13:09:00.565Z,97.72
2022-11-02T13:10:53.137Z,103.95
2022-11-02T13:12:26.824Z,83.40
2022-11-02T13:13:59.956Z,56.58
2022-11-02T13:15:35.397Z,75.38
2022-11-02T13:17:16.249Z,73.40
2022-11-02T13:18:53.402Z,84.50
2022-11-02T13:20:40.038Z,53.63
2022-11-02T13:22:14.402Z,62.08
2022-11-02T13:23:58.397Z,64.47
2022-11-02T13:25:48.553Z,69.32
2022-11-02T13:27:40.202Z,48.08
2022-11-02T13:29:27.066Z,91.05
2022-11-02T13:30:59.390Z,74.88
2022-11-02T13:32:37.001Z,49.22
2022-11-02T13:34:14.769Z,46.60
2022-11-02T13:35:47.337Z,48.65
2022-11-02T13:37:33.150Z,44.85
2022-11-02T13:39:35.201Z,55.60
2022-11-02T13:41:44.643Z,56.53
2022-11-02T13:43:25.025Z,74.93
2022-11-02T13:45:18.581Z,55.35
2022-11-02T13:47:00.827Z,59.75
2022-11-02T13:48:40.215Z,49.80
2022-11-02T13:50:17.072Z,41.97
2022-11-02T13:51:52.806Z,47.00
2022-11-02T13:53:32.657Z,54.92
2022-11-02T13:55:06.301Z,53.13
2022-11-02T13:56:38.780Z,48.25
2022-11-02T13:58:23.630Z,45.20
2022-11-02T13:59:55.683Z,57.20
2022-11-02T14:01:30.723Z,43.08
2022-11-02T14:03:20.719Z,66.00
2022-11-02T14:04:52.678Z,48.58
2022-11-02T14:06:26.185Z,50.38
2022-11-02T14:08:08.403Z,59.58
2022-11-02T14:09:44.731Z,44.33
2022-11-02T14:11:16.699Z,48.95
2022-11-02T14:12:49.902Z,51.28
2022-11-02T14:14:23.406Z,57.95
2022-11-02T14:15:55.332Z,52.00
2022-11-02T14:17:27.803Z,62.78
2022-11-02T14:19:19.464Z,48.80
2022-11-02T14:20:51.893Z,52.80
2022-11-02T14:22:23.801Z,48.13
2022-11-02T14:23:55.608Z,42.80
2022-11-02T14:25:48.532Z,41.90
2022-11-02T14:27:22.258Z,43.55
2022-11-02T14:28:54.114Z,42.22
2022-11-02T14:30:44.212Z,47.25
2022-11-02T14:32:21.769Z,43.05
2022-11-02T14:34:13.389Z,42.13
2022-11-02T14:35:56.812Z,42.70
2022-11-02T14:37:50.137Z,39.05
2022-11-02T14:39:43.570Z,45.33
2022-11-02T14:41:44.519Z,43.58
2022-11-02T14:44:04.226Z,49.67
2022-11-02T14:46:13.825Z,47.22
2022-11-02T14:47:45.710Z,44.45
2022-11-02T14:49:25.673Z,39.17
2022-11-02T14:51:07.382Z,36.63
2022-11-02T14:52:42.689Z,33.60
2022-11-02T14:54:17.514Z,44.70
2022-11-02T14:55:56.838Z,51.58
2022-11-02T14:57:34.012Z,48.88
2022-11-02T14:59:05.779Z,33.88
2022-11-02T15:00:54.520Z,34.05
2022-11-02T15:02:37.259Z,34.30
2022-11-02T15:04:12.232Z,44.53
2022-11-02T15:06:03.341Z,34.35
2022-11-02T15:08:22.665Z,36.00
2022-11-02T15:09:57.986Z,39.70
2022-11-02T15:11:56.968Z,32.33
2022-11-02T15:13:46.925Z,32.78
2022-11-02T15:15:35.718Z,33.78
2022-11-02T15:17:10.451Z,28.08
2022-11-02T15:18:42.270Z,30.25
2022-11-02T15:20:13.945Z,27.13
2022-11-02T15:21:46.124Z,27.27
2022-11-02T15:23:31.798Z,24.33
2022-11-02T15:25:20.495Z,28.02
2022-11-02T15:27:01.314Z,29.00
2022-11-02T15:28:34.995Z,23.58
2022-11-02T15:30:07.650Z,25.95
2022-11-02T15:31:43.268Z,26.20
2022-11-02T15:33:47.008Z,27.88
2022-11-02T15:35:25.134Z,32.90
2022-11-02T15:36:59.449Z,23.42
2022-11-02T15:38:36.703Z,27.92
2022-11-02T15:40:20.977Z,24.65
2022-11-02T15:45:51.835Z,31.75
2022-11-02T15:47:41.032Z,39.90
2022-11-02T15:49:40.340Z,36.80
2022-11-02T15:51:29.626Z,33.60
2022-11-02T15:53:23.390Z,38.15
2022-11-02T15:55:20.487Z,36.25
2022-11-02T15:57:14.963Z,36.67
2022-11-02T15:59:14.208Z,32.83
2022-11-02T16:01:27.365Z,53.45
2022-11-02T16:03:07.676Z,48.85
2022-11-02T16:04:45.493Z,38.95
2022-11-02T16:06:39.586Z,43.47
2022-11-02T16:08:26.110Z,53.22
2022-11-02T16:10:16.117Z,44.72
2022-11-02T16:12:02.717Z,50.65
2022-11-02T16:13:48.859Z,30.98
2022-11-02T16:15:28.141Z,59.85
2022-11-02T16:16:59.868Z,41.78
2022-11-02T16:18:39.737Z,48.40
2022-11-02T16:20:22.859Z,48.80
2022-11-02T16:22:00.021Z,47.90
2022-11-02T16:23:36.210Z,70.10
2022-11-02T16:25:17.415Z,52.53
2022-11-02T16:26:50.145Z,51.05
2022-11-02T16:28:24.796Z,55.05
2022-11-02T16:29:56.649Z,52.75
2022-11-02T16:31:32.701Z,54.28
2022-11-02T16:33:05.895Z,46.80
2022-11-02T16:34:39.306Z,52.53
2022-11-02T16:36:15.769Z,61.60
2022-11-02T16:37:50.097Z,44.67
2022-11-02T16:39:27.924Z,47.90
2022-11-02T16:41:00.531Z,47.72
2022-11-02T16:42:32.728Z,48.72
2022-11-02T16:44:16.294Z,58.83
2022-11-02T16:45:51.172Z,72.35
2022-11-02T16:47:34.594Z,59.38
2022-11-02T16:49:19.607Z,65.32
2022-11-02T16:51:14.659Z,86.13
2022-11-02T16:52:57.602Z,105.35
2022-11-02T16:54:35.166Z,98.82
2022-11-02T16:56:31.236Z,70.60
2022-11-02T16:58:05.376Z,103.45
2022-11-02T16:59:46.080Z,96.15
2022-11-02T17:01:24.660Z,109.80
2022-11-02T17:02:56.804Z,67.50
2022-11-02T17:04:31.673Z,88.63
2022-11-02T17:06:06.186Z,64.57
2022-11-02T17:07:44.511Z,85.32
2022-11-02T17:09:23.679Z,75.53
2022-11-02T17:10:58.896Z,98.45
2022-11-02T17:12:38.063Z,95.68
2022-11-02T17:14:11.286Z,97.85
2022-11-02T17:15:50.393Z,100.38
2022-11-02T17:17:24.831Z,94.05
2022-11-02T17:18:56.576Z,99.80
2022-11-02T17:20:28.319Z,63.20
2022-11-02T17:22:14.403Z,72.72
2022-11-02T17:23:47.950Z,105.72
2022-11-02T17:25:19.799Z,115.03
2022-11-02T17:27:16.266Z,72.28
2022-11-02T17:28:51.448Z,98.53
2022-11-02T17:30:43.729Z,98.47
2022-11-02T17:32:16.728Z,136.95
2022-11-02T17:33:48.893Z,89.20
2022-11-02T17:35:25.993Z,101.55
2022-11-02T17:36:59.015Z,127.53
2022-11-02T17:38:31.276Z,76.78
2022-11-02T17:40:03.533Z,73.72
2022-11-02T17:41:54.114Z,71.93
2022-11-02T17:43:25.877Z,163.05
2022-11-02T17:44:57.674Z,122.45
2022-11-02T17:46:29.958Z,103.75
2022-11-02T17:48:02.388Z,145.25
2022-11-02T17:49:34.344Z,112.32
2022-11-02T17:51:12.948Z,124.95
2022-11-02T17:52:44.892Z,118.85
2022-11-02T17:54:16.721Z,127.68
2022-11-02T17:55:48.588Z,127.78
2022-11-02T17:57:21.077Z,89.88
2022-11-02T17:58:52.766Z,98.85
2022-11-02T18:00:25.837Z,103.55
2022-11-02T18:01:57.692Z,87.97
2022-11-02T18:03:31.387Z,121.18
2022-11-02T18:05:03.504Z,121.53
2022-11-02T18:06:35.369Z,125.25
2022-11-02T18:08:08.923Z,119.68
2022-11-02T18:09:40.880Z,134.52
2022-11-02T18:11:12.628Z,134.63
2022-11-02T18:12:44.692Z,129.35
2022-11-02T18:14:17.100Z,109.00
2022-11-02T18:15:49.591Z,155.02
2022-11-02T18:17:21.304Z,142.35
2022-11-02T18:18:53.075Z,137.25
2022-11-02T18:20:27.648Z,95.32
2022-11-02T18:22:00.149Z,168.32
2022-11-02T18:23:33.116Z,178.27
2022-11-02T18:25:07.270Z,167.77
2022-11-02T18:26:41.423Z,155.88
2022-11-02T18:28:16.091Z,134.10
2022-11-02T18:29:47.841Z,166.30
2022-11-02T18:31:19.592Z,124.70
2022-11-02T18:32:51.317Z,162.02
2022-11-02T18:34:23.036Z,139.20
2022-11-02T18:36:04.380Z,115.50
2022-11-02T18:37:38.021Z,196.52
2022-11-02T18:39:09.737Z,207.00
2022-11-02T18:40:41.527Z,167.77
2022-11-02T18:42:13.248Z,170.60
2022-11-02T18:43:44.940Z,165.75
2022-11-02T18:45:16.939Z,175.80
2022-11-02T18:46:48.776Z,207.60
2022-11-02T18:48:20.506Z,146.50
2022-11-02T18:49:52.379Z,195.00
2022-11-02T18:51:24.499Z,209.88
2022-11-02T18:52:56.214Z,207.35
2022-11-02T18:54:27.936Z,182.02
2022-11-02T18:56:07.945Z,171.32
2022-11-02T18:57:39.712Z,190.82
2022-11-02T18:59:11.779Z,209.60
2022-11-02T19:00:43.573Z,179.20
2022-11-02T19:02:15.975Z,198.40
2022-11-02T19:03:52.595Z,181.05
2022-11-02T19:05:42.768Z,216.15
2022-11-02T19:07:33.091Z,248.20
2022-11-02T19:09:18.740Z,213.55
2022-11-02T19:10:51.134Z,220.07
2022-11-02T19:12:25.699Z,208.35
2022-11-02T19:13:57.550Z,219.93
2022-11-02T19:15:30.176Z,211.73
2022-11-02T19:17:03.152Z,196.70
2022-11-02T19:18:34.957Z,209.43
2022-11-02T19:20:07.262Z,194.85
2022-11-02T19:21:39.404Z,201.15
2022-11-02T19:23:11.422Z,218.82
2022-11-02T19:24:43.609Z,218.35
2022-11-02T19:26:15.405Z,200.70
2022-11-02T19:27:47.159Z,187.32
2022-11-02T19:29:19.441Z,210.13
2022-11-02T19:30:51.184Z,197.35
2022-11-02T19:32:22.949Z,214.02
2022-11-02T19:33:54.977Z,220.63
2022-11-02T19:35:26.763Z,200.45
2022-11-02T19:36:58.789Z,201.43
2022-11-02T19:38:36.404Z,192.82
2022-11-02T19:40:08.851Z,220.93
2022-11-02T19:41:40.696Z,200.30
2022-11-02T19:43:12.978Z,203.85
2022-11-02T19:44:44.728Z,227.95
2022-11-02T19:46:21.506Z,182.57
2022-11-02T19:47:53.370Z,195.40
2022-11-02T19:49:25.127Z,204.90
2022-11-02T19:51:04.037Z,198.40
2022-11-02T19:52:35.804Z,189.63
2022-11-02T19:54:07.592Z,203.13
2022-11-02T19:55:39.329Z,198.10
2022-11-02T19:57:11.052Z,171.10
2022-11-02T19:58:45.092Z,190.60
2022-11-02T20:00:17.196Z,207.48
2022-11-02T20:01:50.029Z,195.02
2022-11-02T20:03:21.872Z,202.38
2022-11-02T20:04:53.865Z,190.45
2022-11-02T20:06:28.450Z,208.85
2022-11-02T20:08:00.176Z,195.50
2022-11-02T20:09:31.912Z,188.02
2022-11-02T20:11:06.569Z,200.98
2022-11-02T20:12:38.791Z,187.30
2022-11-02T20:14:11.794Z,189.23
2022-11-02T20:15:43.530Z,173.38
2022-11-02T20:17:31.332Z,150.05
2022-11-02T20:19:05.820Z,179.23
2022-11-02T20:20:37.581Z,189.05
2022-11-02T20:22:09.328Z,165.90
2022-11-02T20:23:42.277Z,161.93
2022-11-02T20:25:14.673Z,172.30
2022-11-02T20:26:46.413Z,188.20
2022-11-02T20:28:18.171Z,187.45
2022-11-02T20:29:49.906Z,168.20
2022-11-02T20:31:24.389Z,140.82
2022-11-02T20:32:56.321Z,175.27
2022-11-02T20:34:28.104Z,184.85
2022-11-02T20:35:59.839Z,158.95
2022-11-02T20:37:35.052Z,183.73
2022-11-02T20:39:07.603Z,205.07
2022-11-02T20:40:41.373Z,192.93
2022-11-02T20:42:13.254Z,171.77
2022-11-02T20:43:47.338Z,197.05
2022-11-02T20:45:19.088Z,187.85
2022-11-02T20:46:53.281Z,178.95
2022-11-02T20:48:25.333Z,199.82
2022-11-02T20:49:57.123Z,198.40
2022-11-02T20:51:28.980Z,185.77
2022-11-02T20:53:00.810Z,227.82
2022-11-02T20:54:33.009Z,195.35
2022-11-02T20:56:05.457Z,217.65
2022-11-02T20:57:37.897Z,230.35
2022-11-02T20:59:09.689Z,198.35
2022-11-02T21:00:41.495Z,216.90